createdAt,value
2018-06-03T00:01:31.050Z,18.22
2018-06-03T00:03:59.056Z,18.18
2018-06-03T00:06:27.065Z,18.18
2018-06-03T00:08:55.072Z,18.06
2018-06-03T00:11:23.058Z,18.24
2018-06-03T00:13:51.055Z,18.23
2018-06-03T00:16:19.046Z,18.30
2018-06-03T00:18:47.049Z,18.34
2018-06-03T00:21:35.630Z,18.24
2018-06-03T00:24:03.636Z,18.00
2018-06-03T00:26:31.897Z,17.99
2018-06-03T00:29:00.186Z,18.05
2018-06-03T00:31:28.451Z,17.92
2018-06-03T00:33:56.742Z,18.02
2018-06-03T00:36:36.830Z,18.12
2018-06-03T00:39:07.816Z,18.18
2018-06-03T00:41:36.090Z,18.11
2018-06-03T00:44:04.362Z,17.92
2018-06-03T00:46:32.641Z,18.21
2018-06-03T00:49:00.930Z,18.20
2018-06-03T00:51:29.205Z,18.14
2018-06-03T00:53:57.510Z,18.18
2018-06-03T00:56:37.707Z,18.29
2018-06-03T00:59:05.984Z,18.27
2018-06-03T01:01:34.247Z,18.02
2018-06-03T01:04:02.530Z,18.22
2018-06-03T01:06:30.811Z,18.28
2018-06-03T01:08:59.086Z,17.93
2018-06-03T01:11:27.365Z,18.25
2018-06-03T01:13:55.638Z,18.18
2018-06-03T01:16:23.925Z,18.13
2018-06-03T01:18:52.193Z,18.04
2018-06-03T01:21:20.471Z,18.18
2018-06-03T01:23:48.741Z,18.11
2018-06-03T01:26:17.018Z,18.16
2018-06-03T01:28:45.287Z,18.28
2018-06-03T01:31:13.573Z,18.14
2018-06-03T01:33:41.840Z,17.86
2018-06-03T01:36:10.116Z,18.06
2018-06-03T01:38:38.390Z,17.90
2018-06-03T01:41:06.657Z,17.67
2018-06-03T01:43:34.934Z,17.79
2018-06-03T01:46:03.205Z,17.74
2018-06-03T01:48:31.494Z,17.84
2018-06-03T01:50:59.777Z,17.80
2018-06-03T01:53:28.050Z,17.79
2018-06-03T01:55:56.321Z,17.98
2018-06-03T01:58:24.599Z,17.84
2018-06-03T02:00:52.875Z,17.76
2018-06-03T02:03:21.153Z,17.85
2018-06-03T02:05:49.418Z,17.89
2018-06-03T02:08:17.694Z,17.83
2018-06-03T02:10:45.982Z,17.74
2018-06-03T02:13:14.268Z,17.85
2018-06-03T02:15:42.538Z,17.72
2018-06-03T02:18:10.810Z,17.73
2018-06-03T02:20:39.085Z,17.80
2018-06-03T02:23:07.379Z,17.81
2018-06-03T02:25:35.662Z,17.23
2018-06-03T02:28:03.940Z,17.55
2018-06-03T02:30:32.221Z,17.45
2018-06-03T02:33:00.494Z,17.38
2018-06-03T02:35:28.774Z,17.41
2018-06-03T02:37:57.078Z,17.57
2018-06-03T02:40:25.322Z,17.56
2018-06-03T02:42:53.594Z,17.35
2018-06-03T02:45:21.873Z,17.38
2018-06-03T02:47:50.154Z,17.23
2018-06-03T02:50:18.442Z,16.65
2018-06-03T02:52:46.718Z,16.80
2018-06-03T02:55:14.990Z,16.96
2018-06-03T02:57:43.274Z,16.90
2018-06-03T03:00:12.059Z,16.89
2018-06-03T03:02:40.342Z,17.08
2018-06-03T03:05:08.606Z,16.80
2018-06-03T03:07:36.894Z,16.80
2018-06-03T03:10:05.166Z,16.74
2018-06-03T03:12:33.441Z,16.96
2018-06-03T03:15:01.714Z,17.00
2018-06-03T03:17:29.987Z,16.88
2018-06-03T03:19:58.270Z,17.00
2018-06-03T03:22:26.540Z,16.96
2018-06-03T03:24:54.814Z,17.05
2018-06-03T03:27:23.099Z,17.02
2018-06-03T03:29:51.384Z,16.92
2018-06-03T03:32:19.670Z,16.87
2018-06-03T03:34:47.941Z,17.07
2018-06-03T03:37:16.234Z,17.07
2018-06-03T03:39:44.526Z,17.03
2018-06-03T03:42:12.814Z,17.11
2018-06-03T03:44:41.097Z,17.19
2018-06-03T03:47:09.386Z,17.06
2018-06-03T03:49:37.677Z,16.84
2018-06-03T03:52:05.954Z,16.81
2018-06-03T03:54:34.246Z,16.95
2018-06-03T03:57:02.522Z,17.08
2018-06-03T03:59:30.846Z,17.14
2018-06-03T04:01:59.126Z,17.13
2018-06-03T04:04:27.410Z,17.09
2018-06-03T04:06:55.704Z,16.96
2018-06-03T04:09:23.973Z,16.91
2018-06-03T04:11:52.263Z,16.92
2018-06-03T04:14:20.546Z,16.87
2018-06-03T04:16:48.829Z,16.82
2018-06-03T04:19:18.046Z,16.65
2018-06-03T04:21:46.358Z,16.80
2018-06-03T04:24:14.625Z,16.65
2018-06-03T04:26:42.914Z,16.56
2018-06-03T04:29:11.210Z,16.63
2018-06-03T04:31:39.490Z,16.68
2018-06-03T04:34:07.774Z,16.67
2018-06-03T04:36:36.058Z,16.65
2018-06-03T04:39:04.350Z,16.75
2018-06-03T04:41:32.630Z,16.75
2018-06-03T04:44:00.964Z,16.66
2018-06-03T04:46:29.243Z,16.70
2018-06-03T04:48:57.524Z,16.35
2018-06-03T04:51:25.818Z,16.49
2018-06-03T04:53:54.102Z,16.48
2018-06-03T04:56:22.390Z,16.66
2018-06-03T04:58:50.674Z,16.88
2018-06-03T05:01:18.978Z,16.84
2018-06-03T05:03:47.251Z,16.70
2018-06-03T05:06:15.553Z,16.47
2018-06-03T05:08:43.832Z,16.25
2018-06-03T05:11:12.109Z,16.69
2018-06-03T05:13:40.401Z,16.80
2018-06-03T05:16:08.684Z,16.93
2018-06-03T05:18:36.978Z,16.78
2018-06-03T05:21:05.266Z,16.67
2018-06-03T05:23:33.563Z,16.53
2018-06-03T05:26:01.851Z,16.82
2018-06-03T05:28:30.147Z,16.67
2018-06-03T05:30:58.434Z,16.98
2018-06-03T05:33:26.728Z,16.64
2018-06-03T05:35:55.006Z,16.52
2018-06-03T05:38:23.297Z,16.53
2018-06-03T05:40:51.578Z,16.71
2018-06-03T05:43:19.885Z,16.50
2018-06-03T05:45:48.180Z,16.93
2018-06-03T05:48:16.460Z,17.15
2018-06-03T05:50:44.748Z,16.82
2018-06-03T05:53:13.029Z,17.15
2018-06-03T05:55:41.321Z,17.40
2018-06-03T05:58:09.602Z,17.16
2018-06-03T06:00:37.893Z,17.48
2018-06-03T06:03:06.174Z,17.73
2018-06-03T06:05:34.499Z,17.96
2018-06-03T06:08:02.773Z,18.04
2018-06-03T06:10:31.075Z,18.09
2018-06-03T06:12:59.374Z,18.16
2018-06-03T06:15:27.706Z,18.21
2018-06-03T06:17:55.986Z,18.22
2018-06-03T06:20:24.265Z,18.26
2018-06-03T06:22:52.566Z,18.56
2018-06-03T06:25:20.849Z,18.58
2018-06-03T06:27:49.145Z,18.54
2018-06-03T06:30:17.424Z,18.50
2018-06-03T06:32:45.714Z,18.80
2018-06-03T06:35:14.016Z,18.94
2018-06-03T06:37:42.301Z,19.07
2018-06-03T06:40:10.601Z,19.21
2018-06-03T06:42:38.899Z,19.54
2018-06-03T06:45:07.195Z,19.30
2018-06-03T06:47:35.481Z,19.85
2018-06-03T06:50:03.784Z,19.61
2018-06-03T06:52:32.058Z,19.04
2018-06-03T06:55:00.354Z,19.62
2018-06-03T06:57:29.551Z,19.61
2018-06-03T06:59:57.847Z,20.73
2018-06-03T07:02:26.131Z,20.65
2018-06-03T07:04:54.430Z,20.81
2018-06-03T07:07:22.746Z,20.06
2018-06-03T07:09:51.030Z,20.65
2018-06-03T07:12:19.317Z,21.12
2018-06-03T07:14:47.619Z,21.31
2018-06-03T07:17:15.897Z,21.85
2018-06-03T07:19:44.202Z,21.60
2018-06-03T07:22:12.494Z,21.88
2018-06-03T07:24:40.771Z,22.66
2018-06-03T07:27:09.062Z,23.37
2018-06-03T07:29:37.345Z,23.00
2018-06-03T07:32:05.693Z,22.66
2018-06-03T07:34:33.923Z,22.83
2018-06-03T07:37:02.214Z,23.24
2018-06-03T07:39:30.510Z,22.93
2018-06-03T07:41:58.826Z,23.70
2018-06-03T07:44:27.111Z,23.37
2018-06-03T07:46:55.415Z,21.29
2018-06-03T07:49:23.689Z,22.17
2018-06-03T07:51:51.986Z,22.75
2018-06-03T07:54:20.273Z,24.30
2018-06-03T07:56:48.554Z,24.64
2018-06-03T07:59:16.844Z,24.58
2018-06-03T08:01:45.138Z,24.40
2018-06-03T08:04:13.419Z,25.08
2018-06-03T08:06:41.703Z,23.75
2018-06-03T08:09:09.993Z,23.93
2018-06-03T08:11:38.274Z,25.28
2018-06-03T08:14:06.571Z,24.71
2018-06-03T08:16:34.858Z,25.06
2018-06-03T08:19:03.154Z,25.58
2018-06-03T08:21:31.438Z,24.29
2018-06-03T08:23:59.745Z,25.58
2018-06-03T08:26:28.022Z,24.33
2018-06-03T08:28:56.318Z,24.70
2018-06-03T08:31:24.618Z,25.20
2018-06-03T08:33:52.902Z,24.61
2018-06-03T08:36:21.202Z,24.96
2018-06-03T08:38:49.488Z,25.47
2018-06-03T08:41:17.794Z,26.13
2018-06-03T08:43:46.075Z,25.94
2018-06-03T08:46:14.365Z,25.46
2018-06-03T08:48:42.658Z,24.45
2018-06-03T08:51:10.952Z,25.68
2018-06-03T08:53:39.238Z,25.70
2018-06-03T08:56:07.545Z,25.13
2018-06-03T08:58:35.845Z,24.98
2018-06-03T09:01:04.760Z,25.09
2018-06-03T09:03:33.073Z,25.01
2018-06-03T09:06:01.341Z,24.97
2018-06-03T09:08:29.630Z,25.00
2018-06-03T09:10:57.910Z,24.17
2018-06-03T09:13:26.202Z,24.35
2018-06-03T09:15:54.486Z,24.48
2018-06-03T09:18:22.782Z,25.40
2018-06-03T09:20:51.074Z,25.54
2018-06-03T09:23:19.376Z,25.01
2018-06-03T09:25:47.650Z,24.98
2018-06-03T09:28:16.213Z,25.54
2018-06-03T09:30:44.493Z,25.83
2018-06-03T09:33:12.774Z,25.46
2018-06-03T09:35:41.071Z,25.96
2018-06-03T09:38:09.353Z,26.21
2018-06-03T09:40:37.642Z,26.14
2018-06-03T09:43:05.925Z,25.80
2018-06-03T09:45:34.228Z,25.47
2018-06-03T09:48:02.522Z,25.69
2018-06-03T09:50:30.802Z,25.72
2018-06-03T09:52:59.086Z,25.61
2018-06-03T09:55:27.374Z,25.42
2018-06-03T09:57:55.658Z,24.35
2018-06-03T10:00:23.947Z,25.34
2018-06-03T10:02:52.234Z,25.08
2018-06-03T10:05:20.514Z,25.91
2018-06-03T10:07:48.810Z,25.55
2018-06-03T10:10:17.116Z,25.00
2018-06-03T10:12:45.386Z,25.78
2018-06-03T10:15:13.667Z,25.98
2018-06-03T10:17:41.965Z,25.48
2018-06-03T10:20:10.243Z,25.83
2018-06-03T10:22:38.542Z,25.35
2018-06-03T10:25:06.843Z,26.14
2018-06-03T10:27:35.126Z,25.43
2018-06-03T10:30:03.432Z,25.37
2018-06-03T10:32:31.710Z,25.71
2018-06-03T10:35:00.006Z,25.94
2018-06-03T10:37:28.285Z,26.03
2018-06-03T10:39:56.595Z,26.04
2018-06-03T10:42:24.863Z,25.75
2018-06-03T10:44:53.962Z,25.30
2018-06-03T10:47:22.251Z,25.35
2018-06-03T10:49:50.547Z,24.83
2018-06-03T10:52:19.706Z,24.75
2018-06-03T10:54:47.991Z,25.41
2018-06-03T10:57:16.279Z,25.88
2018-06-03T10:59:44.610Z,25.94
2018-06-03T11:02:12.864Z,26.47
2018-06-03T11:04:41.142Z,26.26
2018-06-03T11:07:09.430Z,25.39
2018-06-03T11:09:37.752Z,25.79
2018-06-03T11:12:06.040Z,26.37
2018-06-03T11:14:34.325Z,26.12
2018-06-03T11:17:02.649Z,25.96
2018-06-03T11:19:30.913Z,25.90
2018-06-03T11:21:59.185Z,25.96
2018-06-03T11:24:27.477Z,25.98
2018-06-03T11:26:55.754Z,26.54
2018-06-03T11:29:24.041Z,26.39
2018-06-03T11:31:52.327Z,26.89
2018-06-03T11:34:20.614Z,26.39
2018-06-03T11:36:48.899Z,26.97
2018-06-03T11:39:17.210Z,26.40
2018-06-03T11:41:45.495Z,26.42
2018-06-03T11:44:13.778Z,26.33
2018-06-03T11:46:42.063Z,26.98
2018-06-03T11:49:10.345Z,26.95
2018-06-03T11:51:38.647Z,27.02
2018-06-03T11:54:06.931Z,26.25
2018-06-03T11:56:46.954Z,26.10
2018-06-03T11:59:15.241Z,26.48
2018-06-03T12:01:43.510Z,26.54
2018-06-03T12:04:11.783Z,27.25
2018-06-03T12:06:40.066Z,26.70
2018-06-03T12:09:08.352Z,27.00
2018-06-03T12:11:36.637Z,27.24
2018-06-03T12:14:04.915Z,27.75
2018-06-03T12:16:33.203Z,27.52
2018-06-03T12:19:01.483Z,28.06
2018-06-03T12:21:29.771Z,27.64
2018-06-03T12:23:58.043Z,28.32
2018-06-03T12:26:26.326Z,28.02
2018-06-03T12:28:54.611Z,27.67
2018-06-03T12:31:22.901Z,27.53
2018-06-03T12:33:51.175Z,28.11
2018-06-03T12:36:19.458Z,27.80
2018-06-03T12:38:47.731Z,27.58
2018-06-03T12:41:16.014Z,27.82
2018-06-03T12:43:44.289Z,27.95
2018-06-03T12:46:12.562Z,28.36
2018-06-03T12:48:40.846Z,28.48
2018-06-03T12:51:09.131Z,28.18
2018-06-03T12:53:37.410Z,28.50
2018-06-03T12:56:05.686Z,28.47
2018-06-03T12:58:33.986Z,28.12
2018-06-03T13:01:02.262Z,27.77
2018-06-03T13:03:30.598Z,27.50
2018-06-03T13:05:58.880Z,27.51
2018-06-03T13:08:27.191Z,27.44
2018-06-03T13:10:55.458Z,27.24
2018-06-03T13:13:23.737Z,27.42
2018-06-03T13:15:52.022Z,27.10
2018-06-03T13:18:20.331Z,26.78
2018-06-03T13:20:48.582Z,26.37
2018-06-03T13:23:16.867Z,26.37
2018-06-03T13:25:45.141Z,26.40
2018-06-03T13:28:13.418Z,26.23
2018-06-03T13:30:42.070Z,26.19
2018-06-03T13:33:10.342Z,26.22
2018-06-03T13:35:38.630Z,26.56
2018-06-03T13:38:06.908Z,26.83
2018-06-03T13:40:35.202Z,26.46
2018-06-03T13:43:03.482Z,26.67
2018-06-03T13:45:31.779Z,26.49
2018-06-03T13:48:00.062Z,26.84
2018-06-03T13:50:28.346Z,27.12
2018-06-03T13:52:56.652Z,27.05
2018-06-03T13:55:24.932Z,27.27
2018-06-03T13:57:53.222Z,27.31
2018-06-03T14:00:21.515Z,27.66
2018-06-03T14:02:49.814Z,26.87
2018-06-03T14:05:18.099Z,26.55
2018-06-03T14:07:46.395Z,26.31
2018-06-03T14:10:14.678Z,26.77
2018-06-03T14:12:42.966Z,27.22
2018-06-03T14:15:11.246Z,27.35
2018-06-03T14:17:39.546Z,27.19
2018-06-03T14:20:07.825Z,27.13
2018-06-03T14:22:36.110Z,26.88
2018-06-03T14:25:04.409Z,26.64
2018-06-03T14:27:32.743Z,26.94
2018-06-03T14:30:01.009Z,27.23
2018-06-03T14:32:29.298Z,27.40
2018-06-03T14:34:57.585Z,27.53
2018-06-03T14:37:25.862Z,27.42
2018-06-03T14:39:54.169Z,27.25
2018-06-03T14:42:55.380Z,27.49
2018-06-03T14:45:24.515Z,27.35
2018-06-03T14:47:53.632Z,27.12
2018-06-03T14:50:22.765Z,26.76
2018-06-03T14:52:51.870Z,26.56
2018-06-03T14:55:21.025Z,26.26
2018-06-03T14:57:50.136Z,26.19
2018-06-03T15:00:19.243Z,25.93
2018-06-03T15:02:48.366Z,25.91
2018-06-03T15:05:17.476Z,25.85
2018-06-03T15:07:46.606Z,25.77
2018-06-03T15:10:15.696Z,25.70
2018-06-03T15:12:44.830Z,25.63
2018-06-03T15:15:14.046Z,25.53
2018-06-03T15:17:43.164Z,25.40
2018-06-03T15:20:12.306Z,25.45
2018-06-03T15:22:41.438Z,25.58
2018-06-03T15:25:10.558Z,26.21
2018-06-03T15:27:39.722Z,26.44
2018-06-03T15:30:08.858Z,26.41
2018-06-03T15:32:38.023Z,26.29
2018-06-03T15:35:07.164Z,26.05
2018-06-03T15:37:36.278Z,26.17
2018-06-03T15:40:05.461Z,26.07
2018-06-03T15:42:34.626Z,26.26
2018-06-03T15:45:03.790Z,26.42
2018-06-03T15:47:32.967Z,26.55
2018-06-03T15:50:02.103Z,26.52
2018-06-03T15:52:31.222Z,26.24
2018-06-03T15:55:00.347Z,26.24
2018-06-03T15:57:29.462Z,26.31
2018-06-03T15:59:58.603Z,26.30
2018-06-03T16:02:27.758Z,26.36
2018-06-03T16:04:56.918Z,26.31
2018-06-03T16:07:25.994Z,26.44
2018-06-03T16:09:55.117Z,26.31
2018-06-03T16:12:24.271Z,26.05
2018-06-03T16:14:53.410Z,25.85
2018-06-03T16:17:22.523Z,26.14
2018-06-03T16:19:51.655Z,26.08
2018-06-03T16:22:20.790Z,26.21
2018-06-03T16:24:49.897Z,26.25
2018-06-03T16:27:19.364Z,26.19
2018-06-03T16:29:48.501Z,26.33
2018-06-03T16:32:17.618Z,26.33
2018-06-03T16:34:46.731Z,26.31
2018-06-03T16:37:15.841Z,26.08
2018-06-03T16:39:44.941Z,26.20
2018-06-03T16:42:14.294Z,26.14
2018-06-03T16:44:43.370Z,26.23
2018-06-03T16:47:12.523Z,26.12
2018-06-03T16:49:41.633Z,26.22
2018-06-03T16:52:10.762Z,26.00
2018-06-03T16:54:39.893Z,25.91
2018-06-03T16:57:09.043Z,25.93
2018-06-03T16:59:38.173Z,25.94
2018-06-03T17:02:07.319Z,25.81
2018-06-03T17:04:36.451Z,25.73
2018-06-03T17:07:05.804Z,25.81
2018-06-03T17:09:34.921Z,25.82
2018-06-03T17:12:04.182Z,25.98
2018-06-03T17:14:33.409Z,25.99
2018-06-03T17:17:02.446Z,25.99
2018-06-03T17:19:31.548Z,26.11
2018-06-03T17:22:00.665Z,26.07
2018-06-03T17:24:29.794Z,26.01
2018-06-03T17:26:58.910Z,26.04
2018-06-03T17:29:28.034Z,25.59
2018-06-03T17:31:57.171Z,25.69
2018-06-03T17:34:26.378Z,25.75
2018-06-03T17:36:55.446Z,25.74
2018-06-03T17:39:24.573Z,25.58
2018-06-03T17:41:53.686Z,25.69
2018-06-03T17:44:22.810Z,25.68
2018-06-03T17:46:51.929Z,25.62
2018-06-03T17:49:21.086Z,25.52
2018-06-03T17:51:50.214Z,25.51
2018-06-03T17:54:19.337Z,25.42
2018-06-03T17:56:48.448Z,25.41
2018-06-03T17:59:17.574Z,25.50
2018-06-03T18:01:46.750Z,25.45
2018-06-03T18:04:15.890Z,25.45
2018-06-03T18:06:45.050Z,25.42
2018-06-03T18:09:14.170Z,25.38
2018-06-03T18:11:43.298Z,25.26
2018-06-03T18:14:12.398Z,25.18
2018-06-03T18:16:41.518Z,25.06
2018-06-03T18:19:10.645Z,25.13
2018-06-03T18:21:39.746Z,25.05
2018-06-03T18:24:08.866Z,24.94
2018-06-03T18:26:38.011Z,24.96
2018-06-03T18:29:07.134Z,24.91
2018-06-03T18:31:36.477Z,24.82
2018-06-03T18:34:05.667Z,24.85
2018-06-03T18:36:34.834Z,24.76
2018-06-03T18:39:05.315Z,24.79
2018-06-03T18:41:34.794Z,24.69
2018-06-03T18:44:03.918Z,24.65
2018-06-03T18:46:33.020Z,24.66
2018-06-03T18:49:02.166Z,24.60
2018-06-03T18:51:31.258Z,24.63
2018-06-03T18:54:00.396Z,24.62
2018-06-03T18:56:29.554Z,24.54
2018-06-03T18:58:58.665Z,24.49
2018-06-03T19:01:27.810Z,24.42
2018-06-03T19:03:56.912Z,24.52
2018-06-03T19:06:26.030Z,24.37
2018-06-03T19:08:55.131Z,24.44
2018-06-03T19:11:24.254Z,24.46
2018-06-03T19:13:53.427Z,24.40
2018-06-03T19:16:22.566Z,24.27
2018-06-03T19:18:51.706Z,24.16
2018-06-03T19:21:20.859Z,24.11
2018-06-03T19:23:49.986Z,24.03
2018-06-03T19:26:19.183Z,23.93
2018-06-03T19:28:48.286Z,23.75
2018-06-03T19:31:17.394Z,23.92
2018-06-03T19:33:46.518Z,23.69
2018-06-03T19:36:15.630Z,23.75
2018-06-03T19:38:44.797Z,23.70
2018-06-03T19:41:13.914Z,23.56
2018-06-03T19:43:43.029Z,23.66
2018-06-03T19:46:12.145Z,23.59
2018-06-03T19:48:41.278Z,23.51
2018-06-03T19:51:10.384Z,23.46
2018-06-03T19:53:39.526Z,23.21
2018-06-03T19:56:08.649Z,23.22
2018-06-03T19:58:38.090Z,23.22
2018-06-03T20:01:07.242Z,23.27
2018-06-03T20:03:36.386Z,23.13
2018-06-03T20:06:05.814Z,23.09
2018-06-03T20:08:34.932Z,23.18
2018-06-03T20:11:04.051Z,23.14
2018-06-03T20:13:33.154Z,23.13
2018-06-03T20:16:02.270Z,22.94
2018-06-03T20:18:31.382Z,22.88
2018-06-03T20:21:00.506Z,22.87
2018-06-03T20:23:29.670Z,22.85
2018-06-03T20:25:58.779Z,22.78
2018-06-03T20:28:27.930Z,22.61
2018-06-03T20:30:57.070Z,22.69
2018-06-03T20:33:26.241Z,22.72
2018-06-03T20:35:55.578Z,22.63
2018-06-03T20:38:24.707Z,22.49
2018-06-03T20:40:53.833Z,22.45
2018-06-03T20:43:22.954Z,22.61
2018-06-03T20:45:52.417Z,22.49
2018-06-03T20:48:21.537Z,22.44
2018-06-03T20:50:50.658Z,22.14
2018-06-03T20:53:19.762Z,22.10
2018-06-03T20:55:48.858Z,21.99
2018-06-03T20:58:17.977Z,22.01
2018-06-03T21:00:47.079Z,21.70
2018-06-03T21:03:16.186Z,21.84
2018-06-03T21:05:45.291Z,21.75
2018-06-03T21:08:14.435Z,21.84
2018-06-03T21:10:43.534Z,21.86
2018-06-03T21:13:12.649Z,21.84
2018-06-03T21:15:41.765Z,21.82
2018-06-03T21:18:10.882Z,21.89
2018-06-03T21:20:39.997Z,21.62
2018-06-03T21:23:09.103Z,21.83
2018-06-03T21:25:38.186Z,21.85
2018-06-03T21:28:07.326Z,21.91
2018-06-03T21:30:36.446Z,21.79
2018-06-03T21:33:05.605Z,21.78
2018-06-03T21:35:34.714Z,21.65
2018-06-03T21:38:03.846Z,21.58
2018-06-03T21:40:32.951Z,21.74
2018-06-03T21:43:02.078Z,21.70
2018-06-03T21:45:31.220Z,21.70
2018-06-03T21:48:00.326Z,21.77
2018-06-03T21:50:29.435Z,21.45
2018-06-03T21:52:58.539Z,21.66
2018-06-03T21:55:27.705Z,21.59
2018-06-03T21:57:56.833Z,21.16
2018-06-03T22:00:25.938Z,21.44
2018-06-03T22:02:55.047Z,21.08
2018-06-03T22:05:24.158Z,21.22
2018-06-03T22:07:54.302Z,20.98
2018-06-03T22:10:23.406Z,20.81
2018-06-03T22:12:52.526Z,20.72
2018-06-03T22:15:21.632Z,20.70
2018-06-03T22:17:50.741Z,20.78
2018-06-03T22:20:19.842Z,21.08
2018-06-03T22:22:48.962Z,20.95
2018-06-03T22:25:18.062Z,21.05
2018-06-03T22:27:47.198Z,20.68
2018-06-03T22:30:16.293Z,20.44
2018-06-03T22:32:45.422Z,20.50
2018-06-03T22:35:14.545Z,20.70
2018-06-03T22:37:43.682Z,20.68
2018-06-03T22:40:12.842Z,20.61
2018-06-03T22:42:41.976Z,20.57
2018-06-03T22:45:11.066Z,20.58
2018-06-03T22:47:40.174Z,20.43
2018-06-03T22:50:09.366Z,20.48
2018-06-03T22:52:38.418Z,20.41
2018-06-03T22:55:07.542Z,20.51
2018-06-03T22:57:47.101Z,20.48
2018-06-03T23:00:25.643Z,20.43
2018-06-03T23:03:00.140Z,20.26
2018-06-03T23:05:29.294Z,20.22
2018-06-03T23:07:58.426Z,20.14
2018-06-03T23:10:27.550Z,20.16
2018-06-03T23:12:56.691Z,20.09
2018-06-03T23:15:25.827Z,20.20
2018-06-03T23:17:54.949Z,20.01
2018-06-03T23:20:24.055Z,19.96
2018-06-03T23:22:53.191Z,19.90
2018-06-03T23:25:22.336Z,20.04
2018-06-03T23:27:51.398Z,20.12
2018-06-03T23:30:20.546Z,20.19
2018-06-03T23:32:49.725Z,20.13
2018-06-03T23:35:18.830Z,20.11
2018-06-03T23:37:47.942Z,19.98
2018-06-03T23:40:17.046Z,19.69
2018-06-03T23:42:46.154Z,19.82
2018-06-03T23:45:15.255Z,19.77
2018-06-03T23:47:44.646Z,19.86
2018-06-03T23:50:13.753Z,19.77
2018-06-03T23:52:42.867Z,19.90
2018-06-03T23:55:12.023Z,19.77
2018-06-03T23:57:41.162Z,19.89
